• Join FlightAware (Why Join?)
  • Login
  • US Flag 
06:36PM EST


 

Airport Tracker/Info


-or-


 

Live Flight TrackerFlight Track Log ✈ C-FKCO ✈ 09-May-2012 ✈ CYVR - CYYZ

Flight Track Log - Related Links

Times and Time Zones

All times are in EDT time to prevent confusion due to time zone crossing. See the C-FKCO flight status page for this flight to view local times or setup timezone preferences in your user account.

Time Position Orientation Groundspeed Altitude Reporting Facility
EDT Latitude Longitude Course Direction KTS MPH feet Rate Location/Type
07:28PM 49.1667 -123.2333 147° Southeast 160 184 1,800  Level Vancouver Center
07:33PM 48.9667 -123.0333 100° East 310 357 12,300 2,100 Climbing Vancouver Center
07:34PM 48.9500 -122.8833 90° East 340 391 14,500 2,100 Climbing Vancouver Center
07:35PM 48.9500 -122.7333 90° East 360 414 16,600 1,800 Climbing Vancouver Center
07:36PM 48.9500 -122.5500 90° East 380 437 18,200 1,620 Climbing Vancouver Center
07:37PM 48.9500 -122.4000 82° East 400 460 19,900 1,740 Climbing Vancouver Center
07:38PM 48.9667 -122.2167 90° East 420 483 21,700 1,680 Climbing Vancouver Center
07:39PM 48.9667 -122.0500 90° East 430 495 23,300 1,320 Climbing Vancouver Center
07:40PM 48.9667 -121.8333 81° East 440 506 24,400 1,080 Climbing Vancouver Center
07:41PM 48.9833 -121.6667 77° East 460 529 25,500 960 Climbing Vancouver Center
07:42PM 49.0167 -121.4500 83° East 470 541 26,400 900 Climbing Vancouver Center
07:43PM 49.0333 -121.2500 83° East 490 564 27,400 840 Climbing Vancouver Center
07:44PM 49.0500 -121.0500 78° East 500 575 28,100 780 Climbing Vancouver Center
07:45PM 49.0833 -120.8167 78° East 520 598 29,000 960 Climbing Vancouver Center
07:46PM 49.1167 -120.5833 76° East 530 610 30,100 900 Climbing Vancouver Center
07:47PM 49.1500 -120.3833 61° Northeast 540 621 30,800 840 Climbing Vancouver Center
07:48PM 49.2333 -120.1500 70° East 560 644 31,800 900 Climbing Vancouver Center
07:49PM 49.2833 -119.9333 65° Northeast 560 644 32,700 600 Climbing Vancouver Center
07:50PM 49.3500 -119.7167 69° East 560 644 33,000 240 Climbing Vancouver Center
07:51PM 49.4000 -119.5167 61° Northeast 570 656 33,200 600 Climbing Vancouver Center
07:52PM 49.4833 -119.2833 70° East 560 644 34,300 660 Climbing Vancouver Center
07:53PM 49.5333 -119.0667 65° Northeast 560 644 34,600 300 Climbing Vancouver Center
07:54PM 49.6000 -118.8500 72° East 570 656 35,000 180 Climbing Vancouver Center
07:55PM 49.6500 -118.6167 59° Northeast 560 644 35,000 -60 Level Vancouver Center
07:56PM 49.7333 -118.4000 72° East 560 644 34,900  Descending Vancouver Center
07:57PM 49.7833 -118.1667 70° East 560 644 35,000  Climbing Vancouver Center
07:58PM 49.8333 -117.9500 59° Northeast 560 644 35,000  Level Vancouver Center
07:59PM 49.9167 -117.7333 70° East 560 644 35,000  Level Vancouver Center
08:00PM 49.9667 -117.5167 73° East 560 644 35,000  Level Vancouver Center
08:01PM 50.0167 -117.2667 64° Northeast 560 644 35,000  Level Vancouver Center
08:02PM 50.0833 -117.0500 70° East 560 644 35,000  Level Vancouver Center
08:03PM 50.1333 -116.8333 66° East 550 633 35,000 -60 Level Vancouver Center
08:04PM 50.1667 -116.7167 66° East 550 633 34,900  Descending Edmonton Center
08:05PM 50.2333 -116.4833 73° East 560 644 35,000 60 Climbing Edmonton Center
08:06PM 50.2833 -116.2333 75° East 560 644 35,100  Climbing Edmonton Center
08:07PM 50.3167 -116.0333 67° East 560 644 35,100 -60 Level Edmonton Center
08:08PM 50.3833 -115.7833 69° East 550 633 35,000 -60 Descending Edmonton Center
08:09PM 50.4333 -115.5833 67° East 540 621 35,000  Level Edmonton Center
08:10PM 50.5000 -115.3333 68° East 550 633 35,000  Level Edmonton Center
08:11PM 50.5500 -115.1333 73° East 550 633 35,000  Level Edmonton Center
08:12PM 50.6000 -114.8667 68° East 550 633 35,000  Level Edmonton Center
08:13PM 50.6500 -114.6667 66° East 550 633 35,100  Climbing Edmonton Center
08:14PM 50.7167 -114.4333 70° East 550 633 35,100 -60 Level Edmonton Center
08:15PM 50.7667 -114.2167 78° East 540 621 35,000 -120 Descending Edmonton Center
08:16PM 50.8000 -113.9667 70° East 540 621 34,900  Descending Edmonton Center
08:17PM 50.8500 -113.7500 70° East 540 621 35,000  Climbing Edmonton Center
08:18PM 50.9000 -113.5333 71° East 540 621 35,000  Level Edmonton Center
08:19PM 50.9500 -113.3000 71° East 540 621 35,000  Level Edmonton Center
08:20PM 51.0000 -113.0667 65° Northeast 540 621 35,000  Level Edmonton Center
08:21PM 51.0667 -112.8333 75° East 540 621 35,000  Level Edmonton Center
08:22PM 51.1000 -112.6333 68° East 540 621 35,000  Level Edmonton Center
08:23PM 51.1667 -112.3667 82° East 540 621 35,000  Level Edmonton Center
08:24PM 51.1833 -112.1667 71° East 530 610 35,000  Level Edmonton Center
08:25PM 51.2333 -111.9333 70° East 530 610 35,000  Level Edmonton Center
08:26PM 51.2833 -111.7167 71° East 530 610 35,000  Level Edmonton Center
08:27PM 51.3333 -111.4833 74° East 530 610 35,000  Level Edmonton Center
08:28PM 51.3667 -111.3000 71° East 540 621 35,000  Level Winnipeg Center
08:29PM 51.4167 -111.0667 71° East 530 610 35,000  Level Winnipeg Center
08:30PM 51.4667 -110.8333 75° East 530 610 35,000  Level Winnipeg Center
08:31PM 51.5000 -110.6333 73° East 540 621 35,000  Level Winnipeg Center
08:32PM 51.5500 -110.3667 68° East 530 610 35,000  Level Winnipeg Center
08:33PM 51.6000 -110.1667 77° East 540 621 35,000  Level Winnipeg Center
08:34PM 51.6333 -109.9333 71° East 540 621 35,000  Level Winnipeg Center
08:35PM 51.6833 -109.7000 77° East 530 610 35,000  Level Winnipeg Center
08:36PM 51.7167 -109.4667 71° East 530 610 35,000  Level Winnipeg Center
08:37PM 51.7667 -109.2333 76° East 530 610 35,000  Level Winnipeg Center
08:38PM 51.8000 -109.0167 71° East 520 598 35,000  Level Winnipeg Center
08:39PM 51.8500 -108.7833 83° East 530 610 35,000  Level Winnipeg Center
08:40PM 51.8667 -108.5500 76° East 520 598 35,000  Level Winnipeg Center
08:41PM 51.9000 -108.3333 71° East 520 598 35,000  Level Winnipeg Center
08:42PM 51.9500 -108.1000 75° East 520 598 35,000  Level Winnipeg Center
08:43PM 51.9833 -107.9000 78° East 520 598 35,000  Level Winnipeg Center
08:44PM 52.0167 -107.6500 71° East 520 598 35,000  Level Winnipeg Center
08:45PM 52.0667 -107.4167 76° East 520 598 35,000  Level Winnipeg Center
08:46PM 52.1000 -107.2000 77° East 520 598 35,000  Level Winnipeg Center
08:47PM 52.1333 -106.9667 83° East 520 598 35,000  Level Winnipeg Center
08:48PM 52.1500 -106.7500 96° East 520 598 35,000  Level Winnipeg Center
08:49PM 52.1333 -106.5000 104° East 510 587 35,000  Level Winnipeg Center
08:50PM 52.1000 -106.2833 105° East 500 575 35,000  Level Winnipeg Center
08:51PM 52.0667 -106.0833 103° East 500 575 35,000  Level Winnipeg Center
08:52PM 52.0333 -105.8500 97° East 500 575 35,000  Level Winnipeg Center
08:53PM 52.0167 -105.6333 103° East 500 575 35,000  Level Winnipeg Center
08:54PM 51.9833 -105.4000 104° East 500 575 35,000  Level Winnipeg Center
08:55PM 51.9500 -105.1833 105° East 500 575 35,000  Level Winnipeg Center
08:56PM 51.9167 -104.9833 103° East 490 564 35,000  Level Winnipeg Center
08:57PM 51.8833 -104.7500 97° East 490 564 35,100 480 Climbing Winnipeg Center
08:58PM 51.8667 -104.5333 112° Southeast 490 564 36,000 780 Climbing Winnipeg Center
08:59PM 51.8167 -104.3333 97° East 480 552 36,700 300 Climbing Winnipeg Center
09:00PM 51.8000 -104.1167 104° East 480 552 36,700 120 Level Winnipeg Center
09:01PM 51.7667 -103.9000 105° East 490 564 37,000 120 Climbing Winnipeg Center
09:02PM 51.7333 -103.7000 110° East 490 564 37,000  Level Winnipeg Center
09:03PM 51.6833 -103.4833 103° East 490 564 37,000  Level Winnipeg Center
09:04PM 51.6500 -103.2500 98° East 490 564 37,000  Level Winnipeg Center
09:05PM 51.6333 -103.0667 110° East 480 552 37,000  Level Winnipeg Center
09:06PM 51.5833 -102.8500 105° East 490 564 37,000  Level Winnipeg Center
09:07PM 51.5500 -102.6500 104° East 490 564 37,000  Level Winnipeg Center
09:08PM 51.5167 -102.4333 104° East 490 564 37,000  Level Winnipeg Center
09:09PM 51.4833 -102.2167 103° East 500 575 37,000  Level Winnipeg Center
09:10PM 51.4500 -101.9833 114° Southeast 490 564 37,000  Level Winnipeg Center
09:11PM 51.4000 -101.8000 104° East 490 564 37,000  Level Winnipeg Center
09:12PM 51.3667 -101.5833 104° East 490 564 37,000  Level Winnipeg Center
09:13PM 51.3333 -101.3667 104° East 490 564 37,000  Level Winnipeg Center
09:14PM 51.3000 -101.1500 112° Southeast 490 564 37,000  Level Winnipeg Center
09:15PM 51.2500 -100.9500 104° East 490 564 37,000  Level Winnipeg Center
09:16PM 51.2167 -100.7333 104° East 500 575 37,000  Level Winnipeg Center
09:17PM 51.1833 -100.5167 113° Southeast 500 575 37,000  Level Winnipeg Center
09:18PM 51.1333 -100.3333 104° East 500 575 37,000  Level Winnipeg Center
09:19PM 51.1000 -100.1167 104° East 490 564 37,000  Level Winnipeg Center
09:20PM 51.0667 -99.9000 104° East 490 564 37,000  Level Winnipeg Center
09:21PM 51.0333 -99.6833 104° East 490 564 37,000  Level Winnipeg Center
09:22PM 51.0000 -99.4667 97° East 490 564 37,000  Level Winnipeg Center
09:23PM 50.9833 -99.2500 104° East 490 564 37,000  Level Winnipeg Center
09:24PM 50.9500 -99.0333 104° East 490 564 37,000  Level Winnipeg Center
09:25PM 50.9167 -98.8167 105° East 490 564 37,000  Level Winnipeg Center
09:26PM 50.8833 -98.6167 105° East 490 564 37,000  Level Winnipeg Center
09:27PM 50.8500 -98.4167 105° East 490 564 37,000  Level Winnipeg Center
09:28PM 50.8167 -98.2167 104° East 490 564 37,000  Level Winnipeg Center
09:29PM 50.7833 -98.0000 103° East 490 564 37,000  Level Winnipeg Center
09:30PM 50.7500 -97.7667 105° East 500 575 37,000  Level Winnipeg Center
09:31PM 50.7167 -97.5667 103° East 500 575 37,000  Level Winnipeg Center
09:32PM 50.6833 -97.3333 104° East 500 575 37,000  Level Winnipeg Center
09:33PM 50.6500 -97.1167 106° East 500 575 37,000  Level Winnipeg Center
09:34PM 50.6167 -96.9333 103° East 500 575 37,000  Level Winnipeg Center
09:35PM 50.5833 -96.7000 106° East 490 564 37,000  Level Winnipeg Center
09:36PM 50.5500 -96.5167 103° East 490 564 37,000  Level Winnipeg Center
09:37PM 50.5167 -96.2833 106° East 490 564 37,000  Level Winnipeg Center
09:38PM 50.4833 -96.1000 109° East 490 564 37,000  Level Winnipeg Center
09:39PM 50.4333 -95.8667 113° Southeast 490 564 37,000  Level Winnipeg Center
09:40PM 50.3833 -95.6833 103° East 490 564 37,000  Level Winnipeg Center
09:41PM 50.3500 -95.4667 105° East 490 564 37,000  Level Winnipeg Center
09:42PM 50.3167 -95.2667 103° East 490 564 37,000  Level Winnipeg Center
09:43PM 50.2833 -95.0500 105° East 490 564 37,000  Level Winnipeg Center
09:44PM 50.2500 -94.8500 110° East 490 564 37,000  Level Winnipeg Center
09:45PM 50.2000 -94.6333 105° East 490 564 37,000  Level Winnipeg Center
09:46PM 50.1667 -94.4333 103° East 490 564 37,000  Level Winnipeg Center
09:47PM 50.1333 -94.2167 111° Southeast 490 564 37,000  Level Winnipeg Center
09:48PM 50.0833 -94.0167 104° East 490 564 37,000  Level Winnipeg Center
09:49PM 50.0500 -93.8167 103° East 490 564 37,000  Level Winnipeg Center
09:50PM 50.0167 -93.6000 111° Southeast 490 564 37,000  Level Winnipeg Center
09:51PM 49.9667 -93.4000 104° East 490 564 37,000  Level Winnipeg Center
09:52PM 49.9333 -93.2000 106° East 490 564 37,000  Level Winnipeg Center
09:53PM 49.9000 -93.0167 117° Southeast 490 564 37,000  Level Winnipeg Center
09:54PM 49.8333 -92.8167 111° Southeast 490 564 37,000  Level Winnipeg Center
09:55PM 49.7833 -92.6167 117° Southeast 500 575 37,000  Level Winnipeg Center
09:56PM 49.7167 -92.4167 111° Southeast 500 575 37,000  Level Winnipeg Center
09:57PM 49.6667 -92.2167 119° Southeast 490 564 37,000  Level Winnipeg Center
09:58PM 49.6000 -92.0333 104° East 490 564 37,000  Level Winnipeg Center
09:59PM 49.5667 -91.8333 123° Southeast 490 564 37,000  Level Winnipeg Center
10:00PM 49.4833 -91.6333 106° East 490 564 37,000  Level Winnipeg Center
10:01PM 49.4500 -91.4500 125° Southeast 490 564 37,000  Level Winnipeg Center
10:02PM 49.3667 -91.2667 113° Southeast 490 564 37,000  Level Winnipeg Center
10:03PM 49.3167 -91.0833 117° Southeast 490 564 37,000  Level Winnipeg Center
10:04PM 49.2500 -90.8833 121° Southeast 490 564 37,000  Level Winnipeg Center
10:05PM 49.1833 -90.7167 107° East 480 552 37,000  Level Winnipeg Center
10:06PM 49.1500 -90.5500 117° Southeast 480 552 37,000  Level Winnipeg Center
10:07PM 49.0833 -90.3500 117° Southeast 490 564 37,000  Level Winnipeg Center
10:08PM 49.0167 -90.1500 121° Southeast 480 552 37,000  Level Winnipeg Center
10:09PM 48.9500 -89.9833 111° Southeast 480 552 37,000  Level Winnipeg Center
10:10PM 48.9000 -89.7833 121° Southeast 480 552 37,000  Level Winnipeg Center
10:11PM 48.8333 -89.6167 117° Southeast 480 552 37,000  Level Winnipeg Center
10:12PM 48.7667 -89.4167 114° Southeast 480 552 37,000  Level Winnipeg Center
10:13PM 48.7167 -89.2500 121° Southeast 480 552 37,000  Level Winnipeg Center
10:14PM 48.6500 -89.0833 119° Southeast 480 552 37,000  Level Winnipeg Center
10:15PM 48.5833 -88.9000 121° Southeast 480 552 37,000  Level Winnipeg Center
10:16PM 48.5167 -88.7333 117° Southeast 480 552 37,000  Level Winnipeg Center
10:17PM 48.4500 -88.5333 114° Southeast 480 552 37,000  Level Winnipeg Center
10:18PM 48.4000 -88.3667 119° Southeast 480 552 37,000  Level Winnipeg Center
10:19PM 48.3333 -88.1833 117° Southeast 490 564 37,000  Level Winnipeg Center
10:20PM 48.2667 -87.9833 124° Southeast 490 564 37,000  Level Winnipeg Center
10:21PM 48.2000 -87.8333 116° Southeast 490 564 37,000  Level Winnipeg Center
10:22PM 48.1333 -87.6333 121° Southeast 490 564 37,000  Level Winnipeg Center
10:23PM 48.0667 -87.4667 124° Southeast 490 564 37,000  Level Winnipeg Center
10:24PM 47.9833 -87.2833 114° Southeast 490 564 37,000  Level Winnipeg Center
10:25PM 47.9333 -87.1167 130° Southeast 490 564 37,000  Level Winnipeg Center
10:26PM 47.8500 -86.9667 118° Southeast 490 564 37,000  Level Winnipeg Center
10:27PM 47.7833 -86.7833 116° Southeast 500 575 37,000  Level Winnipeg Center
10:28PM 47.7167 -86.5833 118° Southeast 500 575 37,000  Level Winnipeg Center
10:29PM 47.6500 -86.4000 123° Southeast 500 575 37,000  Level Winnipeg Center
10:30PM 47.5833 -86.2500 124° Southeast 500 575 37,100  Climbing Winnipeg Center
10:31PM 47.5000 -86.0667 121° Southeast 490 564 37,000 -60 Descending Winnipeg Center
10:32PM 47.4333 -85.9000 118° Southeast 490 564 37,000  Level Winnipeg Center
10:33PM 47.3667 -85.7167 118° Southeast 490 564 37,000  Level Winnipeg Center
10:34PM 47.3000 -85.5333 123° Southeast 490 564 37,000  Level Winnipeg Center
10:35PM 47.2333 -85.3833 124° Southeast 490 564 37,000  Level Winnipeg Center
10:36PM 47.1500 -85.2000 120° Southeast 490 564 37,000  Level Winnipeg Center
10:37PM 47.0833 -85.0333 126° Southeast 490 564 37,000  Level Winnipeg Center
10:38PM 47.0000 -84.8667 120° Southeast 490 564 37,000  Level Winnipeg Center
10:39PM 46.9333 -84.7000 116° Southeast 490 564 37,000  Level Winnipeg Center
10:40PM 46.8833 -84.5500 124° Southeast 480 552 37,000 -60 Level Winnipeg Center
10:41PM 46.8000 -84.3667 126° Southeast 480 552 36,900  Descending Winnipeg Center
10:42PM 46.7167 -84.2000 123° Southeast 490 564 37,000  Climbing Winnipeg Center
10:43PM 46.6500 -84.0500 116° Southeast 490 564 37,000  Level Toronto Center
10:44PM 46.5833 -83.8500 123° Southeast 490 564 37,100  Climbing Toronto Center
10:45PM 46.5167 -83.7000 120° Southeast 490 564 37,000 -60 Descending Toronto Center
10:46PM 46.4500 -83.5333 123° Southeast 490 564 37,000  Level Toronto Center
10:47PM 46.3667 -83.3500 113° Southeast 490 564 37,000  Level Toronto Center
10:48PM 46.3167 -83.1833 123° Southeast 490 564 37,000  Level Toronto Center
10:49PM 46.2333 -83.0000 126° Southeast 490 564 37,000  Level Toronto Center
10:50PM 46.1667 -82.8667 118° Southeast 480 552 37,000  Level Toronto Center
10:51PM 46.1000 -82.6833 120° Southeast 480 552 37,000  Level Toronto Center
10:52PM 46.0333 -82.5167 120° Southeast 480 552 37,000  Level Toronto Center
10:53PM 45.9667 -82.3500 129° Southeast 480 552 37,000  Level Toronto Center
10:54PM 45.8833 -82.2000 118° Southeast 470 541 37,000  Level Toronto Center
10:55PM 45.8167 -82.0167 126° Southeast 480 552 37,000  Level Toronto Center
10:56PM 45.7500 -81.8833 120° Southeast 480 552 37,000  Level Toronto Center
10:57PM 45.6833 -81.7167 122° Southeast 480 552 37,000  Level Toronto Center
10:58PM 45.6167 -81.5667 134° Southeast 480 552 37,000  Level Toronto Center
10:59PM 45.5167 -81.4167 141° Southeast 470 541 37,000  Level Toronto Center
11:00PM 45.4167 -81.3000 149° Southeast 470 541 37,000  Level Toronto Center
11:01PM 45.3000 -81.2000 145° Southeast 470 541 37,000  Level Toronto Center
11:02PM 45.2000 -81.1000 149° Southeast 470 541 37,000 -480 Level Toronto Center
11:03PM 45.0833 -81.0000 145° Southeast 460 529 36,100 -960 Descending Toronto Center
11:04PM 44.9833 -80.9000 145° Southeast 470 541 35,100 -1,320 Descending Toronto Center
11:05PM 44.9000 -80.8167 141° Southeast 460 529 33,500 -2,400 Descending Toronto Center
11:06PM 44.7833 -80.6833 155° Southeast 450 518 30,300 -2,760 Descending Toronto Center
11:07PM 44.6833 -80.6167 145° Southeast 450 518 28,000 -2,400 Descending Toronto Center
11:08PM 44.5833 -80.5167 149° Southeast 430 495 25,600 -2,340 Descending Toronto Center
11:09PM 44.4833 -80.4333 149° Southeast 410 472 23,400 -2,220 Descending Toronto Center
11:10PM 44.3833 -80.3500 144° Southeast 400 460 21,200 -2,340 Descending Toronto Center
11:11PM 44.3000 -80.2667 144° Southeast 390 449 18,800 -2,340 Descending Toronto Center
11:12PM 44.2167 -80.1833 154° Southeast 380 437 16,600 -2,280 Descending Toronto Center
11:13PM 44.1167 -80.1167 138° Southeast 360 414 14,300 -2,040 Descending Toronto Center
11:14PM 44.0500 -80.0333 144° Southeast 360 414 12,600 -1,200 Descending Toronto Center
11:15PM 43.9667 -79.9500 170° South 320 368 11,900 -1,200 Descending Toronto Center
11:16PM 43.9000 -79.9333 172° South 300 345 10,300 -2,220 Descending Toronto Center
11:17PM 43.8167 -79.9167 164° South 290 334 7,500 -2,160 Descending Toronto Center
11:18PM 43.7333 -79.8833 180° South 290 334 6,000 -1,320 Descending Toronto Center
11:19PM 43.6667 -79.8833 151° Southeast 270 311 4,900 -1,140 Descending Toronto Center
11:20PM 43.6000 -79.8333 144° Southeast 250 288 3,800 -900 Descending Toronto Center
11:21PM 43.5667 -79.8000 47° Northeast 220 253 3,200 -660 Descending Toronto Center
11:22PM 43.6000 -79.7500 65° Northeast 150 173 2,500 -720 Descending Toronto Center
11:23PM 43.6167 -79.7000 20° North 140 161 1,800 -720 Descending Toronto Center
11:24PM 43.6500 -79.6833 20° North 140 161 1,100 -720 Descending Toronto Center